sensor_id;sensor_type;location;lat;lon;timestamp;P1;durP1;ratioP1;P2;durP2;ratioP2
45043;SDS011;30784;48.490;9.688;2023-07-24T00:01:30;9.45;;;4.63;;
45043;SDS011;30784;48.490;9.688;2023-07-24T00:03:55;10.43;;;4.88;;
45043;SDS011;30784;48.490;9.688;2023-07-24T00:06:21;9.63;;;4.75;;
45043;SDS011;30784;48.490;9.688;2023-07-24T00:08:47;9.77;;;4.70;;
45043;SDS011;30784;48.490;9.688;2023-07-24T00:11:12;9.98;;;4.90;;
45043;SDS011;30784;48.490;9.688;2023-07-24T00:13:38;9.93;;;5.18;;
45043;SDS011;30784;48.490;9.688;2023-07-24T00:16:09;11.27;;;5.15;;
45043;SDS011;30784;48.490;9.688;2023-07-24T00:18:35;10.25;;;4.90;;
45043;SDS011;30784;48.490;9.688;2023-07-24T00:21:01;10.25;;;4.85;;
45043;SDS011;30784;48.490;9.688;2023-07-24T00:23:26;9.65;;;4.82;;
45043;SDS011;30784;48.490;9.688;2023-07-24T00:25:52;10.10;;;5.05;;
45043;SDS011;30784;48.490;9.688;2023-07-24T00:28:18;11.82;;;5.03;;
45043;SDS011;30784;48.490;9.688;2023-07-24T00:30:44;10.45;;;5.40;;
45043;SDS011;30784;48.490;9.688;2023-07-24T00:33:09;11.07;;;4.88;;
45043;SDS011;30784;48.490;9.688;2023-07-24T00:35:35;10.23;;;5.28;;
45043;SDS011;30784;48.490;9.688;2023-07-24T00:38:00;8.95;;;4.38;;
45043;SDS011;30784;48.490;9.688;2023-07-24T00:40:26;11.00;;;4.85;;
45043;SDS011;30784;48.490;9.688;2023-07-24T00:42:51;10.70;;;5.07;;
45043;SDS011;30784;48.490;9.688;2023-07-24T00:45:17;10.30;;;4.80;;
45043;SDS011;30784;48.490;9.688;2023-07-24T00:47:42;10.25;;;4.90;;
45043;SDS011;30784;48.490;9.688;2023-07-24T00:50:08;9.57;;;4.80;;
45043;SDS011;30784;48.490;9.688;2023-07-24T00:52:36;9.32;;;4.95;;
45043;SDS011;30784;48.490;9.688;2023-07-24T00:55:02;10.32;;;5.20;;
45043;SDS011;30784;48.490;9.688;2023-07-24T00:57:28;9.57;;;4.88;;
45043;SDS011;30784;48.490;9.688;2023-07-24T00:59:53;9.45;;;4.75;;
45043;SDS011;30784;48.490;9.688;2023-07-24T01:02:19;10.38;;;5.07;;
45043;SDS011;30784;48.490;9.688;2023-07-24T01:04:45;10.23;;;5.07;;
45043;SDS011;30784;48.490;9.688;2023-07-24T01:07:11;10.55;;;4.78;;
45043;SDS011;30784;48.490;9.688;2023-07-24T01:09:37;9.63;;;4.57;;
45043;SDS011;30784;48.490;9.688;2023-07-24T01:12:04;10.10;;;4.93;;
45043;SDS011;30784;48.490;9.688;2023-07-24T01:14:54;9.15;;;4.47;;
45043;SDS011;30784;48.490;9.688;2023-07-24T01:17:23;10.40;;;4.60;;
45043;SDS011;30784;48.490;9.688;2023-07-24T01:19:51;10.98;;;4.75;;
45043;SDS011;30784;48.490;9.688;2023-07-24T01:27:47;10.48;;;5.00;;
45043;SDS011;30784;48.490;9.688;2023-07-24T01:30:14;9.35;;;4.55;;
45043;SDS011;30784;48.490;9.688;2023-07-24T01:32:41;11.15;;;5.38;;
45043;SDS011;30784;48.490;9.688;2023-07-24T01:35:07;9.85;;;4.72;;
45043;SDS011;30784;48.490;9.688;2023-07-24T01:37:34;9.90;;;4.90;;
45043;SDS011;30784;48.490;9.688;2023-07-24T01:40:00;10.95;;;5.40;;
45043;SDS011;30784;48.490;9.688;2023-07-24T01:42:27;10.70;;;4.82;;
45043;SDS011;30784;48.490;9.688;2023-07-24T01:44:54;9.73;;;4.88;;
45043;SDS011;30784;48.490;9.688;2023-07-24T01:47:20;10.32;;;5.13;;
45043;SDS011;30784;48.490;9.688;2023-07-24T01:49:46;11.40;;;5.32;;
45043;SDS011;30784;48.490;9.688;2023-07-24T01:52:11;10.38;;;5.22;;
45043;SDS011;30784;48.490;9.688;2023-07-24T01:54:37;11.98;;;5.20;;
45043;SDS011;30784;48.490;9.688;2023-07-24T01:57:02;10.68;;;5.18;;
45043;SDS011;30784;48.490;9.688;2023-07-24T01:59:28;9.27;;;4.82;;
45043;SDS011;30784;48.490;9.688;2023-07-24T02:01:53;10.75;;;4.63;;
45043;SDS011;30784;48.490;9.688;2023-07-24T02:04:19;11.38;;;5.07;;
45043;SDS011;30784;48.490;9.688;2023-07-24T02:06:47;10.48;;;5.32;;
45043;SDS011;30784;48.490;9.688;2023-07-24T02:09:17;9.68;;;4.68;;
45043;SDS011;30784;48.490;9.688;2023-07-24T02:11:43;10.50;;;5.00;;
45043;SDS011;30784;48.490;9.688;2023-07-24T02:14:10;10.65;;;4.65;;
45043;SDS011;30784;48.490;9.688;2023-07-24T02:16:36;11.38;;;5.38;;
45043;SDS011;30784;48.490;9.688;2023-07-24T02:19:02;11.15;;;5.50;;
45043;SDS011;30784;48.490;9.688;2023-07-24T02:21:28;11.98;;;5.32;;
45043;SDS011;30784;48.490;9.688;2023-07-24T02:23:53;10.88;;;5.00;;
45043;SDS011;30784;48.490;9.688;2023-07-24T02:26:19;10.68;;;5.22;;
45043;SDS011;30784;48.490;9.688;2023-07-24T02:28:44;10.45;;;5.07;;
45043;SDS011;30784;48.490;9.688;2023-07-24T02:31:10;11.75;;;5.30;;
45043;SDS011;30784;48.490;9.688;2023-07-24T02:33:35;12.43;;;5.68;;
45043;SDS011;30784;48.490;9.688;2023-07-24T02:36:01;11.77;;;6.20;;
45043;SDS011;30784;48.490;9.688;2023-07-24T02:38:27;15.63;;;6.50;;
45043;SDS011;30784;48.490;9.688;2023-07-24T02:40:52;11.20;;;6.18;;
45043;SDS011;30784;48.490;9.688;2023-07-24T02:43:18;11.63;;;5.90;;
45043;SDS011;30784;48.490;9.688;2023-07-24T02:45:43;10.27;;;5.38;;
45043;SDS011;30784;48.490;9.688;2023-07-24T02:48:09;12.77;;;6.18;;
45043;SDS011;30784;48.490;9.688;2023-07-24T02:50:34;12.32;;;6.30;;
45043;SDS011;30784;48.490;9.688;2023-07-24T02:53:00;12.15;;;5.60;;
45043;SDS011;30784;48.490;9.688;2023-07-24T02:55:26;10.55;;;4.97;;
45043;SDS011;30784;48.490;9.688;2023-07-24T02:57:51;11.10;;;5.47;;
45043;SDS011;30784;48.490;9.688;2023-07-24T03:00:17;11.45;;;5.60;;
45043;SDS011;30784;48.490;9.688;2023-07-24T03:02:42;11.80;;;6.05;;
45043;SDS011;30784;48.490;9.688;2023-07-24T03:05:08;12.63;;;6.68;;
45043;SDS011;30784;48.490;9.688;2023-07-24T03:07:34;13.45;;;6.10;;
45043;SDS011;30784;48.490;9.688;2023-07-24T03:09:59;12.20;;;6.10;;
45043;SDS011;30784;48.490;9.688;2023-07-24T03:12:25;11.80;;;5.20;;
45043;SDS011;30784;48.490;9.688;2023-07-24T03:14:51;10.82;;;5.35;;
45043;SDS011;30784;48.490;9.688;2023-07-24T03:17:16;10.95;;;5.38;;
45043;SDS011;30784;48.490;9.688;2023-07-24T03:19:42;11.20;;;5.70;;
45043;SDS011;30784;48.490;9.688;2023-07-24T03:22:07;11.32;;;5.22;;
45043;SDS011;30784;48.490;9.688;2023-07-24T03:24:33;10.77;;;5.53;;
45043;SDS011;30784;48.490;9.688;2023-07-24T03:26:59;13.43;;;5.78;;
45043;SDS011;30784;48.490;9.688;2023-07-24T03:29:25;10.98;;;5.45;;
45043;SDS011;30784;48.490;9.688;2023-07-24T03:31:51;10.75;;;5.40;;
45043;SDS011;30784;48.490;9.688;2023-07-24T03:34:17;11.82;;;5.60;;
45043;SDS011;30784;48.490;9.688;2023-07-24T03:36:42;11.23;;;5.65;;
45043;SDS011;30784;48.490;9.688;2023-07-24T03:39:09;12.25;;;5.55;;
45043;SDS011;30784;48.490;9.688;2023-07-24T03:41:35;11.32;;;5.25;;
45043;SDS011;30784;48.490;9.688;2023-07-24T03:44:01;10.10;;;5.35;;
45043;SDS011;30784;48.490;9.688;2023-07-24T03:46:27;10.15;;;5.35;;
45043;SDS011;30784;48.490;9.688;2023-07-24T03:48:52;11.93;;;5.57;;
45043;SDS011;30784;48.490;9.688;2023-07-24T03:51:18;12.32;;;6.05;;
45043;SDS011;30784;48.490;9.688;2023-07-24T03:53:43;11.13;;;5.60;;
45043;SDS011;30784;48.490;9.688;2023-07-24T03:56:09;11.20;;;5.90;;
45043;SDS011;30784;48.490;9.688;2023-07-24T03:58:34;11.98;;;6.00;;
45043;SDS011;30784;48.490;9.688;2023-07-24T04:01:00;11.45;;;5.47;;
45043;SDS011;30784;48.490;9.688;2023-07-24T04:03:25;12.23;;;5.78;;
45043;SDS011;30784;48.490;9.688;2023-07-24T04:05:51;12.15;;;6.00;;
45043;SDS011;30784;48.490;9.688;2023-07-24T04:08:16;13.70;;;6.05;;
45043;SDS011;30784;48.490;9.688;2023-07-24T04:10:42;12.05;;;6.07;;
45043;SDS011;30784;48.490;9.688;2023-07-24T04:13:07;10.95;;;5.68;;
45043;SDS011;30784;48.490;9.688;2023-07-24T04:15:33;11.27;;;5.60;;
45043;SDS011;30784;48.490;9.688;2023-07-24T04:17:59;12.25;;;6.18;;
45043;SDS011;30784;48.490;9.688;2023-07-24T04:20:24;12.18;;;6.28;;
45043;SDS011;30784;48.490;9.688;2023-07-24T04:22:50;11.45;;;5.53;;
45043;SDS011;30784;48.490;9.688;2023-07-24T04:25:15;13.07;;;6.60;;
45043;SDS011;30784;48.490;9.688;2023-07-24T04:27:41;13.13;;;6.22;;
45043;SDS011;30784;48.490;9.688;2023-07-24T04:30:06;13.23;;;6.68;;
45043;SDS011;30784;48.490;9.688;2023-07-24T04:32:32;11.45;;;6.00;;
45043;SDS011;30784;48.490;9.688;2023-07-24T04:34:58;13.07;;;6.47;;
45043;SDS011;30784;48.490;9.688;2023-07-24T04:37:23;12.95;;;5.93;;
45043;SDS011;30784;48.490;9.688;2023-07-24T04:39:49;13.48;;;6.22;;
45043;SDS011;30784;48.490;9.688;2023-07-24T04:42:14;13.95;;;6.70;;
45043;SDS011;30784;48.490;9.688;2023-07-24T04:44:40;12.23;;;6.20;;
45043;SDS011;30784;48.490;9.688;2023-07-24T04:47:05;12.13;;;6.05;;
45043;SDS011;30784;48.490;9.688;2023-07-24T04:49:31;13.13;;;6.88;;
45043;SDS011;30784;48.490;9.688;2023-07-24T04:51:58;11.52;;;6.18;;
45043;SDS011;30784;48.490;9.688;2023-07-24T04:54:24;12.27;;;5.80;;
45043;SDS011;30784;48.490;9.688;2023-07-24T04:56:50;11.48;;;6.10;;
45043;SDS011;30784;48.490;9.688;2023-07-24T04:59:15;12.13;;;6.28;;
45043;SDS011;30784;48.490;9.688;2023-07-24T05:01:41;12.93;;;6.40;;
45043;SDS011;30784;48.490;9.688;2023-07-24T05:04:06;11.18;;;5.80;;
45043;SDS011;30784;48.490;9.688;2023-07-24T05:06:32;11.30;;;5.65;;
45043;SDS011;30784;48.490;9.688;2023-07-24T05:08:57;11.75;;;5.95;;
45043;SDS011;30784;48.490;9.688;2023-07-24T05:11:23;13.05;;;6.40;;
45043;SDS011;30784;48.490;9.688;2023-07-24T05:13:48;11.70;;;5.93;;
45043;SDS011;30784;48.490;9.688;2023-07-24T05:16:14;12.18;;;6.50;;
45043;SDS011;30784;48.490;9.688;2023-07-24T05:18:39;13.35;;;6.28;;
45043;SDS011;30784;48.490;9.688;2023-07-24T05:21:05;12.48;;;6.60;;
45043;SDS011;30784;48.490;9.688;2023-07-24T05:23:30;12.98;;;6.70;;
45043;SDS011;30784;48.490;9.688;2023-07-24T05:25:58;13.23;;;6.20;;
45043;SDS011;30784;48.490;9.688;2023-07-24T05:28:29;12.32;;;6.40;;
45043;SDS011;30784;48.490;9.688;2023-07-24T05:30:55;12.00;;;6.30;;
45043;SDS011;30784;48.490;9.688;2023-07-24T05:33:24;13.65;;;6.60;;
45043;SDS011;30784;48.490;9.688;2023-07-24T05:35:50;11.10;;;6.28;;
45043;SDS011;30784;48.490;9.688;2023-07-24T05:38:15;12.82;;;6.13;;
45043;SDS011;30784;48.490;9.688;2023-07-24T05:40:41;12.45;;;6.28;;
45043;SDS011;30784;48.490;9.688;2023-07-24T05:43:06;11.73;;;6.45;;
45043;SDS011;30784;48.490;9.688;2023-07-24T05:45:32;11.75;;;5.93;;
45043;SDS011;30784;48.490;9.688;2023-07-24T05:47:57;11.27;;;6.05;;
45043;SDS011;30784;48.490;9.688;2023-07-24T05:50:23;10.95;;;6.18;;
45043;SDS011;30784;48.490;9.688;2023-07-24T05:52:48;12.38;;;6.30;;
45043;SDS011;30784;48.490;9.688;2023-07-24T05:55:14;11.90;;;6.07;;
45043;SDS011;30784;48.490;9.688;2023-07-24T05:57:39;12.45;;;6.15;;
45043;SDS011;30784;48.490;9.688;2023-07-24T06:00:05;11.70;;;6.32;;
45043;SDS011;30784;48.490;9.688;2023-07-24T06:02:31;11.93;;;5.95;;
45043;SDS011;30784;48.490;9.688;2023-07-24T06:04:57;11.68;;;6.13;;
45043;SDS011;30784;48.490;9.688;2023-07-24T06:07:23;12.80;;;6.07;;
45043;SDS011;30784;48.490;9.688;2023-07-24T06:09:48;14.07;;;6.28;;
45043;SDS011;30784;48.490;9.688;2023-07-24T06:12:14;12.35;;;5.85;;
45043;SDS011;30784;48.490;9.688;2023-07-24T06:14:39;12.77;;;6.00;;
45043;SDS011;30784;48.490;9.688;2023-07-24T06:17:05;13.00;;;6.75;;
45043;SDS011;30784;48.490;9.688;2023-07-24T06:19:30;13.10;;;6.15;;
45043;SDS011;30784;48.490;9.688;2023-07-24T06:21:56;13.30;;;6.38;;
45043;SDS011;30784;48.490;9.688;2023-07-24T06:24:21;12.02;;;5.78;;
45043;SDS011;30784;48.490;9.688;2023-07-24T06:26:48;12.18;;;6.15;;
45043;SDS011;30784;48.490;9.688;2023-07-24T06:29:14;12.90;;;6.90;;
45043;SDS011;30784;48.490;9.688;2023-07-24T06:31:40;11.93;;;6.35;;
45043;SDS011;30784;48.490;9.688;2023-07-24T06:34:05;11.75;;;6.20;;
45043;SDS011;30784;48.490;9.688;2023-07-24T06:36:31;12.07;;;6.43;;
45043;SDS011;30784;48.490;9.688;2023-07-24T06:38:56;11.90;;;6.53;;
45043;SDS011;30784;48.490;9.688;2023-07-24T06:41:22;12.07;;;5.82;;
45043;SDS011;30784;48.490;9.688;2023-07-24T06:43:48;11.90;;;5.78;;
45043;SDS011;30784;48.490;9.688;2023-07-24T06:46:14;13.18;;;5.90;;
45043;SDS011;30784;48.490;9.688;2023-07-24T06:48:39;11.60;;;5.68;;
45043;SDS011;30784;48.490;9.688;2023-07-24T06:51:05;11.98;;;6.15;;
45043;SDS011;30784;48.490;9.688;2023-07-24T06:53:30;11.63;;;5.47;;
45043;SDS011;30784;48.490;9.688;2023-07-24T06:55:56;11.95;;;6.35;;
45043;SDS011;30784;48.490;9.688;2023-07-24T06:58:21;12.27;;;5.88;;
45043;SDS011;30784;48.490;9.688;2023-07-24T07:00:47;12.55;;;5.88;;
45043;SDS011;30784;48.490;9.688;2023-07-24T07:03:12;11.50;;;5.72;;
45043;SDS011;30784;48.490;9.688;2023-07-24T07:05:38;11.05;;;5.32;;
45043;SDS011;30784;48.490;9.688;2023-07-24T07:08:03;11.30;;;5.15;;
45043;SDS011;30784;48.490;9.688;2023-07-24T07:10:30;13.23;;;5.28;;
45043;SDS011;30784;48.490;9.688;2023-07-24T07:12:56;11.10;;;5.28;;
45043;SDS011;30784;48.490;9.688;2023-07-24T07:15:22;11.25;;;5.20;;
45043;SDS011;30784;48.490;9.688;2023-07-24T07:17:47;10.95;;;5.60;;
45043;SDS011;30784;48.490;9.688;2023-07-24T07:20:13;12.05;;;5.63;;
45043;SDS011;30784;48.490;9.688;2023-07-24T07:22:39;10.18;;;5.35;;
45043;SDS011;30784;48.490;9.688;2023-07-24T07:25:04;10.40;;;5.10;;
45043;SDS011;30784;48.490;9.688;2023-07-24T07:27:30;10.82;;;4.88;;
45043;SDS011;30784;48.490;9.688;2023-07-24T07:29:55;10.18;;;4.85;;
45043;SDS011;30784;48.490;9.688;2023-07-24T07:32:21;11.00;;;4.97;;
45043;SDS011;30784;48.490;9.688;2023-07-24T07:34:46;10.48;;;5.22;;
45043;SDS011;30784;48.490;9.688;2023-07-24T07:37:12;9.77;;;4.50;;
45043;SDS011;30784;48.490;9.688;2023-07-24T07:39:37;10.70;;;4.55;;
45043;SDS011;30784;48.490;9.688;2023-07-24T07:42:03;8.40;;;4.18;;
45043;SDS011;30784;48.490;9.688;2023-07-24T07:44:29;9.45;;;4.25;;
45043;SDS011;30784;48.490;9.688;2023-07-24T07:46:54;10.13;;;4.03;;
45043;SDS011;30784;48.490;9.688;2023-07-24T07:49:20;9.02;;;4.00;;
45043;SDS011;30784;48.490;9.688;2023-07-24T07:51:45;9.18;;;3.80;;
45043;SDS011;30784;48.490;9.688;2023-07-24T07:54:11;8.80;;;4.10;;
45043;SDS011;30784;48.490;9.688;2023-07-24T07:56:36;8.57;;;3.90;;
45043;SDS011;30784;48.490;9.688;2023-07-24T07:59:02;8.20;;;3.78;;
45043;SDS011;30784;48.490;9.688;2023-07-24T08:01:27;7.93;;;3.22;;
45043;SDS011;30784;48.490;9.688;2023-07-24T08:03:53;9.43;;;3.70;;
45043;SDS011;30784;48.490;9.688;2023-07-24T08:06:18;8.50;;;3.70;;
45043;SDS011;30784;48.490;9.688;2023-07-24T08:08:46;9.40;;;3.40;;
45043;SDS011;30784;48.490;9.688;2023-07-24T08:11:11;7.40;;;3.42;;
45043;SDS011;30784;48.490;9.688;2023-07-24T08:13:37;8.73;;;3.63;;
45043;SDS011;30784;48.490;9.688;2023-07-24T08:16:02;8.05;;;3.22;;
45043;SDS011;30784;48.490;9.688;2023-07-24T08:18:31;7.88;;;3.42;;
45043;SDS011;30784;48.490;9.688;2023-07-24T08:20:57;7.57;;;3.20;;
45043;SDS011;30784;48.490;9.688;2023-07-24T08:23:22;7.43;;;3.40;;
45043;SDS011;30784;48.490;9.688;2023-07-24T08:25:51;7.10;;;3.15;;
45043;SDS011;30784;48.490;9.688;2023-07-24T08:28:20;7.63;;;3.35;;
45043;SDS011;30784;48.490;9.688;2023-07-24T08:30:46;8.27;;;3.35;;
45043;SDS011;30784;48.490;9.688;2023-07-24T08:33:20;8.25;;;3.50;;
45043;SDS011;30784;48.490;9.688;2023-07-24T08:35:46;7.13;;;3.30;;
45043;SDS011;30784;48.490;9.688;2023-07-24T08:38:11;8.25;;;3.75;;
45043;SDS011;30784;48.490;9.688;2023-07-24T08:40:37;7.40;;;3.20;;
45043;SDS011;30784;48.490;9.688;2023-07-24T08:43:04;8.05;;;3.40;;
45043;SDS011;30784;48.490;9.688;2023-07-24T08:45:29;7.40;;;3.17;;
45043;SDS011;30784;48.490;9.688;2023-07-24T08:47:56;7.90;;;3.50;;
45043;SDS011;30784;48.490;9.688;2023-07-24T08:50:23;8.40;;;3.60;;
45043;SDS011;30784;48.490;9.688;2023-07-24T08:52:50;8.13;;;3.50;;
45043;SDS011;30784;48.490;9.688;2023-07-24T08:55:15;8.05;;;3.05;;
45043;SDS011;30784;48.490;9.688;2023-07-24T08:57:41;6.78;;;3.00;;
45043;SDS011;30784;48.490;9.688;2023-07-24T09:00:07;7.22;;;3.10;;
45043;SDS011;30784;48.490;9.688;2023-07-24T09:02:33;7.57;;;3.40;;
45043;SDS011;30784;48.490;9.688;2023-07-24T09:04:59;7.63;;;3.25;;
45043;SDS011;30784;48.490;9.688;2023-07-24T09:07:25;8.57;;;3.42;;
45043;SDS011;30784;48.490;9.688;2023-07-24T09:09:51;7.60;;;3.25;;
45043;SDS011;30784;48.490;9.688;2023-07-24T09:12:17;6.75;;;2.80;;
45043;SDS011;30784;48.490;9.688;2023-07-24T09:14:43;8.48;;;3.60;;
45043;SDS011;30784;48.490;9.688;2023-07-24T09:17:10;8.38;;;3.50;;
45043;SDS011;30784;48.490;9.688;2023-07-24T09:19:36;8.02;;;3.50;;
45043;SDS011;30784;48.490;9.688;2023-07-24T09:22:10;7.50;;;3.20;;
45043;SDS011;30784;48.490;9.688;2023-07-24T09:24:52;7.13;;;3.15;;
45043;SDS011;30784;48.490;9.688;2023-07-24T09:27:19;7.47;;;3.30;;
45043;SDS011;30784;48.490;9.688;2023-07-24T09:29:45;7.78;;;3.30;;
45043;SDS011;30784;48.490;9.688;2023-07-24T09:32:24;7.28;;;3.08;;
45043;SDS011;30784;48.490;9.688;2023-07-24T09:34:51;7.72;;;3.60;;
45043;SDS011;30784;48.490;9.688;2023-07-24T09:37:30;7.90;;;3.28;;
45043;SDS011;30784;48.490;9.688;2023-07-24T09:39:57;7.18;;;2.95;;
45043;SDS011;30784;48.490;9.688;2023-07-24T09:42:30;8.02;;;3.15;;
45043;SDS011;30784;48.490;9.688;2023-07-24T09:44:56;8.63;;;3.50;;
45043;SDS011;30784;48.490;9.688;2023-07-24T09:47:22;8.35;;;3.40;;
45043;SDS011;30784;48.490;9.688;2023-07-24T09:49:47;8.25;;;3.50;;
45043;SDS011;30784;48.490;9.688;2023-07-24T09:52:13;7.65;;;3.33;;
45043;SDS011;30784;48.490;9.688;2023-07-24T09:54:43;8.40;;;3.05;;
45043;SDS011;30784;48.490;9.688;2023-07-24T09:57:16;7.85;;;3.35;;
45043;SDS011;30784;48.490;9.688;2023-07-24T09:59:42;8.45;;;3.17;;
45043;SDS011;30784;48.490;9.688;2023-07-24T10:02:09;7.55;;;3.28;;
45043;SDS011;30784;48.490;9.688;2023-07-24T10:04:36;8.70;;;3.65;;
45043;SDS011;30784;48.490;9.688;2023-07-24T10:07:03;9.70;;;3.72;;
45043;SDS011;30784;48.490;9.688;2023-07-24T10:09:29;7.93;;;3.30;;
45043;SDS011;30784;48.490;9.688;2023-07-24T10:11:55;8.35;;;3.70;;
45043;SDS011;30784;48.490;9.688;2023-07-24T10:14:22;8.40;;;3.28;;
45043;SDS011;30784;48.490;9.688;2023-07-24T10:16:49;9.80;;;3.28;;
45043;SDS011;30784;48.490;9.688;2023-07-24T10:19:20;7.10;;;2.85;;
45043;SDS011;30784;48.490;9.688;2023-07-24T10:21:49;7.38;;;3.28;;
45043;SDS011;30784;48.490;9.688;2023-07-24T10:24:15;8.10;;;3.00;;
45043;SDS011;30784;48.490;9.688;2023-07-24T10:26:41;8.30;;;3.42;;
45043;SDS011;30784;48.490;9.688;2023-07-24T10:29:08;8.68;;;3.35;;
45043;SDS011;30784;48.490;9.688;2023-07-24T10:31:34;7.20;;;2.90;;
45043;SDS011;30784;48.490;9.688;2023-07-24T10:34:03;6.75;;;2.70;;
45043;SDS011;30784;48.490;9.688;2023-07-24T10:36:33;7.20;;;3.00;;
45043;SDS011;30784;48.490;9.688;2023-07-24T10:38:59;8.10;;;3.33;;
45043;SDS011;30784;48.490;9.688;2023-07-24T10:41:36;7.38;;;2.70;;
45043;SDS011;30784;48.490;9.688;2023-07-24T10:44:02;7.43;;;2.92;;
45043;SDS011;30784;48.490;9.688;2023-07-24T10:46:38;7.75;;;3.20;;
45043;SDS011;30784;48.490;9.688;2023-07-24T10:49:05;9.25;;;3.53;;
45043;SDS011;30784;48.490;9.688;2023-07-24T10:51:32;8.48;;;3.50;;
45043;SDS011;30784;48.490;9.688;2023-07-24T10:53:59;7.50;;;3.35;;
45043;SDS011;30784;48.490;9.688;2023-07-24T10:56:27;8.13;;;3.17;;
45043;SDS011;30784;48.490;9.688;2023-07-24T10:58:54;7.85;;;3.40;;
45043;SDS011;30784;48.490;9.688;2023-07-24T11:01:19;8.52;;;3.60;;
45043;SDS011;30784;48.490;9.688;2023-07-24T11:03:45;7.53;;;3.22;;
45043;SDS011;30784;48.490;9.688;2023-07-24T11:06:12;8.98;;;3.50;;
45043;SDS011;30784;48.490;9.688;2023-07-24T11:08:50;7.60;;;3.40;;
45043;SDS011;30784;48.490;9.688;2023-07-24T11:11:21;7.47;;;3.00;;
45043;SDS011;30784;48.490;9.688;2023-07-24T11:13:47;8.27;;;3.17;;
45043;SDS011;30784;48.490;9.688;2023-07-24T11:16:13;7.55;;;2.97;;
45043;SDS011;30784;48.490;9.688;2023-07-24T11:18:48;8.80;;;3.30;;
45043;SDS011;30784;48.490;9.688;2023-07-24T11:21:14;7.93;;;3.33;;
45043;SDS011;30784;48.490;9.688;2023-07-24T11:23:46;8.18;;;3.70;;
45043;SDS011;30784;48.490;9.688;2023-07-24T11:26:13;7.25;;;3.25;;
45043;SDS011;30784;48.490;9.688;2023-07-24T11:28:40;9.25;;;3.45;;
45043;SDS011;30784;48.490;9.688;2023-07-24T11:31:05;9.15;;;4.15;;
45043;SDS011;30784;48.490;9.688;2023-07-24T11:33:31;8.07;;;3.40;;
45043;SDS011;30784;48.490;9.688;2023-07-24T11:35:57;8.18;;;3.70;;
45043;SDS011;30784;48.490;9.688;2023-07-24T11:38:23;6.82;;;3.00;;
45043;SDS011;30784;48.490;9.688;2023-07-24T11:40:48;7.97;;;3.03;;
45043;SDS011;30784;48.490;9.688;2023-07-24T11:43:18;7.75;;;3.30;;
45043;SDS011;30784;48.490;9.688;2023-07-24T11:45:48;7.45;;;3.40;;
45043;SDS011;30784;48.490;9.688;2023-07-24T11:48:17;7.93;;;3.58;;
45043;SDS011;30784;48.490;9.688;2023-07-24T11:50:47;8.50;;;3.75;;
45043;SDS011;30784;48.490;9.688;2023-07-24T11:53:20;8.50;;;3.45;;
45043;SDS011;30784;48.490;9.688;2023-07-24T11:55:54;8.67;;;3.87;;
45043;SDS011;30784;48.490;9.688;2023-07-24T11:58:21;8.52;;;3.75;;
45043;SDS011;30784;48.490;9.688;2023-07-24T12:00:47;8.23;;;3.72;;
45043;SDS011;30784;48.490;9.688;2023-07-24T12:03:14;8.18;;;3.80;;
45043;SDS011;30784;48.490;9.688;2023-07-24T12:05:44;9.80;;;4.07;;
45043;SDS011;30784;48.490;9.688;2023-07-24T12:08:10;10.60;;;3.95;;
45043;SDS011;30784;48.490;9.688;2023-07-24T12:10:37;8.95;;;3.88;;
45043;SDS011;30784;48.490;9.688;2023-07-24T12:13:03;9.27;;;4.35;;
45043;SDS011;30784;48.490;9.688;2023-07-24T12:15:29;8.23;;;3.70;;
45043;SDS011;30784;48.490;9.688;2023-07-24T12:17:55;8.73;;;4.07;;
45043;SDS011;30784;48.490;9.688;2023-07-24T12:20:21;9.25;;;3.97;;
45043;SDS011;30784;48.490;9.688;2023-07-24T12:22:47;8.50;;;3.88;;
45043;SDS011;30784;48.490;9.688;2023-07-24T12:25:13;8.23;;;3.75;;
45043;SDS011;30784;48.490;9.688;2023-07-24T12:27:38;7.75;;;3.70;;
45043;SDS011;30784;48.490;9.688;2023-07-24T12:30:06;8.55;;;4.10;;
45043;SDS011;30784;48.490;9.688;2023-07-24T12:32:32;8.60;;;3.67;;
45043;SDS011;30784;48.490;9.688;2023-07-24T12:34:58;7.18;;;3.42;;
45043;SDS011;30784;48.490;9.688;2023-07-24T12:37:23;8.48;;;3.60;;
45043;SDS011;30784;48.490;9.688;2023-07-24T12:39:49;7.78;;;3.55;;
45043;SDS011;30784;48.490;9.688;2023-07-24T12:42:15;8.45;;;3.83;;
45043;SDS011;30784;48.490;9.688;2023-07-24T12:44:41;7.28;;;3.25;;
45043;SDS011;30784;48.490;9.688;2023-07-24T12:47:08;8.20;;;3.65;;
45043;SDS011;30784;48.490;9.688;2023-07-24T12:49:33;8.48;;;3.45;;
45043;SDS011;30784;48.490;9.688;2023-07-24T12:51:59;7.57;;;3.22;;
45043;SDS011;30784;48.490;9.688;2023-07-24T12:54:25;7.80;;;3.40;;
45043;SDS011;30784;48.490;9.688;2023-07-24T12:56:51;8.35;;;3.50;;
45043;SDS011;30784;48.490;9.688;2023-07-24T12:59:17;7.75;;;3.38;;
45043;SDS011;30784;48.490;9.688;2023-07-24T13:01:43;8.07;;;3.58;;
45043;SDS011;30784;48.490;9.688;2023-07-24T13:04:09;6.55;;;2.90;;
45043;SDS011;30784;48.490;9.688;2023-07-24T13:06:35;7.22;;;3.08;;
45043;SDS011;30784;48.490;9.688;2023-07-24T13:09:01;7.60;;;3.22;;
45043;SDS011;30784;48.490;9.688;2023-07-24T13:11:27;7.85;;;3.35;;
45043;SDS011;30784;48.490;9.688;2023-07-24T13:13:54;7.07;;;3.28;;
45043;SDS011;30784;48.490;9.688;2023-07-24T13:16:19;7.03;;;3.13;;
45043;SDS011;30784;48.490;9.688;2023-07-24T13:18:45;7.22;;;3.00;;
45043;SDS011;30784;48.490;9.688;2023-07-24T13:21:11;8.32;;;3.35;;
45043;SDS011;30784;48.490;9.688;2023-07-24T13:23:36;7.18;;;2.83;;
45043;SDS011;30784;48.490;9.688;2023-07-24T13:26:02;7.53;;;2.90;;
45043;SDS011;30784;48.490;9.688;2023-07-24T13:28:28;7.13;;;3.20;;
45043;SDS011;30784;48.490;9.688;2023-07-24T13:30:53;6.82;;;3.00;;
45043;SDS011;30784;48.490;9.688;2023-07-24T13:33:19;7.03;;;2.97;;
45043;SDS011;30784;48.490;9.688;2023-07-24T13:35:46;7.13;;;2.90;;
45043;SDS011;30784;48.490;9.688;2023-07-24T13:38:12;6.47;;;2.45;;
45043;SDS011;30784;48.490;9.688;2023-07-24T13:40:38;6.10;;;2.53;;
45043;SDS011;30784;48.490;9.688;2023-07-24T13:43:03;6.47;;;2.83;;
45043;SDS011;30784;48.490;9.688;2023-07-24T13:45:30;6.32;;;2.58;;
45043;SDS011;30784;48.490;9.688;2023-07-24T13:47:56;7.20;;;2.72;;
45043;SDS011;30784;48.490;9.688;2023-07-24T13:50:22;7.75;;;2.70;;
45043;SDS011;30784;48.490;9.688;2023-07-24T13:52:47;6.80;;;2.55;;
45043;SDS011;30784;48.490;9.688;2023-07-24T13:55:13;6.85;;;2.70;;
45043;SDS011;30784;48.490;9.688;2023-07-24T13:57:39;7.03;;;2.90;;
45043;SDS011;30784;48.490;9.688;2023-07-24T14:00:05;8.52;;;3.20;;
45043;SDS011;30784;48.490;9.688;2023-07-24T14:02:31;8.23;;;3.13;;
45043;SDS011;30784;48.490;9.688;2023-07-24T14:04:56;6.57;;;2.50;;
45043;SDS011;30784;48.490;9.688;2023-07-24T14:07:22;6.22;;;2.50;;
45043;SDS011;30784;48.490;9.688;2023-07-24T14:09:47;5.47;;;2.22;;
45043;SDS011;30784;48.490;9.688;2023-07-24T14:12:13;5.97;;;2.38;;
45043;SDS011;30784;48.490;9.688;2023-07-24T14:14:38;6.80;;;2.38;;
45043;SDS011;30784;48.490;9.688;2023-07-24T14:17:04;6.53;;;2.42;;
45043;SDS011;30784;48.490;9.688;2023-07-24T14:19:29;6.68;;;2.63;;
45043;SDS011;30784;48.490;9.688;2023-07-24T14:21:55;6.00;;;2.42;;
45043;SDS011;30784;48.490;9.688;2023-07-24T14:24:20;9.07;;;2.50;;
45043;SDS011;30784;48.490;9.688;2023-07-24T14:26:46;6.97;;;2.40;;
45043;SDS011;30784;48.490;9.688;2023-07-24T14:29:13;8.35;;;2.30;;
45043;SDS011;30784;48.490;9.688;2023-07-24T14:31:38;6.80;;;2.60;;
45043;SDS011;30784;48.490;9.688;2023-07-24T14:34:04;6.13;;;2.45;;
45043;SDS011;30784;48.490;9.688;2023-07-24T14:36:29;6.90;;;2.50;;
45043;SDS011;30784;48.490;9.688;2023-07-24T14:39:02;10.35;;;4.40;;
45043;SDS011;30784;48.490;9.688;2023-07-24T14:41:28;7.80;;;3.25;;